sensor_id;sensor_type;location;lat;lon;timestamp;temperature;humidity
35127;DHT22;21300;52.006;5.798;2022-08-18T00:02:31;22.20;68.40
35127;DHT22;21300;52.006;5.798;2022-08-18T00:04:57;22.20;68.40
35127;DHT22;21300;52.006;5.798;2022-08-18T00:07:28;22.20;68.40
35127;DHT22;21300;52.006;5.798;2022-08-18T00:09:54;22.10;68.40
35127;DHT22;21300;52.006;5.798;2022-08-18T00:12:32;22.10;68.50
35127;DHT22;21300;52.006;5.798;2022-08-18T00:14:59;22.10;69.30
35127;DHT22;21300;52.006;5.798;2022-08-18T00:17:29;22.10;68.40
35127;DHT22;21300;52.006;5.798;2022-08-18T00:19:55;22.10;68.50
35127;DHT22;21300;52.006;5.798;2022-08-18T00:22:21;22.10;68.90
35127;DHT22;21300;52.006;5.798;2022-08-18T00:24:50;22.10;68.60
35127;DHT22;21300;52.006;5.798;2022-08-18T00:27:18;22.10;68.60
35127;DHT22;21300;52.006;5.798;2022-08-18T00:29:46;22.10;68.60
35127;DHT22;21300;52.006;5.798;2022-08-18T00:32:18;22.00;68.60
35127;DHT22;21300;52.006;5.798;2022-08-18T00:34:45;22.10;68.80
35127;DHT22;21300;52.006;5.798;2022-08-18T00:37:10;22.00;68.70
35127;DHT22;21300;52.006;5.798;2022-08-18T00:39:36;22.00;68.80
35127;DHT22;21300;52.006;5.798;2022-08-18T00:42:22;22.00;68.70
35127;DHT22;21300;52.006;5.798;2022-08-18T00:44:48;22.00;68.60
35127;DHT22;21300;52.006;5.798;2022-08-18T00:47:14;22.00;68.70
35127;DHT22;21300;52.006;5.798;2022-08-18T00:49:40;22.00;68.70
35127;DHT22;21300;52.006;5.798;2022-08-18T00:52:08;22.00;68.80
35127;DHT22;21300;52.006;5.798;2022-08-18T00:54:37;22.00;68.70
35127;DHT22;21300;52.006;5.798;2022-08-18T00:57:07;21.90;68.70
35127;DHT22;21300;52.006;5.798;2022-08-18T00:59:56;21.90;68.80
35127;DHT22;21300;52.006;5.798;2022-08-18T01:02:30;21.90;68.70
35127;DHT22;21300;52.006;5.798;2022-08-18T01:05:04;21.90;68.80
35127;DHT22;21300;52.006;5.798;2022-08-18T01:07:36;21.90;69.10
35127;DHT22;21300;52.006;5.798;2022-08-18T01:10:04;21.90;68.90
35127;DHT22;21300;52.006;5.798;2022-08-18T01:12:31;21.90;68.90
35127;DHT22;21300;52.006;5.798;2022-08-18T01:14:57;21.90;68.90
35127;DHT22;21300;52.006;5.798;2022-08-18T01:17:24;21.90;69.00
35127;DHT22;21300;52.006;5.798;2022-08-18T01:20:14;21.90;68.90
35127;DHT22;21300;52.006;5.798;2022-08-18T01:23:20;21.90;68.90
35127;DHT22;21300;52.006;5.798;2022-08-18T01:25:47;21.90;68.90
35127;DHT22;21300;52.006;5.798;2022-08-18T01:28:47;21.90;69.00
35127;DHT22;21300;52.006;5.798;2022-08-18T01:31:35;21.90;68.90
35127;DHT22;21300;52.006;5.798;2022-08-18T01:34:04;21.80;68.90
35127;DHT22;21300;52.006;5.798;2022-08-18T01:36:32;21.80;69.10
35127;DHT22;21300;52.006;5.798;2022-08-18T01:39:05;21.80;68.90
35127;DHT22;21300;52.006;5.798;2022-08-18T01:41:31;21.80;69.00
35127;DHT22;21300;52.006;5.798;2022-08-18T01:43:59;21.80;69.00
35127;DHT22;21300;52.006;5.798;2022-08-18T01:46:26;21.80;69.00
35127;DHT22;21300;52.006;5.798;2022-08-18T01:48:54;21.80;69.10
35127;DHT22;21300;52.006;5.798;2022-08-18T01:51:20;21.80;69.00
35127;DHT22;21300;52.006;5.798;2022-08-18T01:53:46;21.70;69.00
35127;DHT22;21300;52.006;5.798;2022-08-18T01:56:13;21.70;69.00
35127;DHT22;21300;52.006;5.798;2022-08-18T01:58:43;21.70;69.10
35127;DHT22;21300;52.006;5.798;2022-08-18T02:01:12;21.70;69.00
35127;DHT22;21300;52.006;5.798;2022-08-18T02:03:42;21.70;69.10
35127;DHT22;21300;52.006;5.798;2022-08-18T02:06:10;21.70;69.20
35127;DHT22;21300;52.006;5.798;2022-08-18T02:08:37;21.70;69.00
35127;DHT22;21300;52.006;5.798;2022-08-18T02:11:04;21.70;69.20
35127;DHT22;21300;52.006;5.798;2022-08-18T02:13:30;21.70;69.10
35127;DHT22;21300;52.006;5.798;2022-08-18T02:15:56;21.70;69.10
35127;DHT22;21300;52.006;5.798;2022-08-18T02:18:24;21.70;69.10
35127;DHT22;21300;52.006;5.798;2022-08-18T02:20:53;21.70;69.20
35127;DHT22;21300;52.006;5.798;2022-08-18T02:23:18;21.70;69.00
35127;DHT22;21300;52.006;5.798;2022-08-18T02:25:44;21.60;69.10
35127;DHT22;21300;52.006;5.798;2022-08-18T02:28:10;21.70;69.20
35127;DHT22;21300;52.006;5.798;2022-08-18T02:30:36;21.60;69.10
35127;DHT22;21300;52.006;5.798;2022-08-18T02:33:03;21.60;69.10
35127;DHT22;21300;52.006;5.798;2022-08-18T02:35:29;21.60;69.10
35127;DHT22;21300;52.006;5.798;2022-08-18T02:37:58;21.60;69.10
35127;DHT22;21300;52.006;5.798;2022-08-18T02:40:24;21.60;69.20
35127;DHT22;21300;52.006;5.798;2022-08-18T02:42:49;21.60;69.20
35127;DHT22;21300;52.006;5.798;2022-08-18T02:45:17;21.60;69.20
35127;DHT22;21300;52.006;5.798;2022-08-18T02:47:44;21.60;69.10
35127;DHT22;21300;52.006;5.798;2022-08-18T02:50:11;21.50;69.10
35127;DHT22;21300;52.006;5.798;2022-08-18T02:52:38;21.50;69.10
35127;DHT22;21300;52.006;5.798;2022-08-18T02:55:04;21.50;69.10
35127;DHT22;21300;52.006;5.798;2022-08-18T02:57:30;21.50;69.20
35127;DHT22;21300;52.006;5.798;2022-08-18T02:59:56;21.60;69.20
35127;DHT22;21300;52.006;5.798;2022-08-18T03:02:22;21.50;69.10
35127;DHT22;21300;52.006;5.798;2022-08-18T03:04:48;21.50;69.20
35127;DHT22;21300;52.006;5.798;2022-08-18T03:07:14;21.50;69.20
35127;DHT22;21300;52.006;5.798;2022-08-18T03:09:40;21.50;69.20
35127;DHT22;21300;52.006;5.798;2022-08-18T03:12:07;21.50;69.20
35127;DHT22;21300;52.006;5.798;2022-08-18T03:14:33;21.50;69.30
35127;DHT22;21300;52.006;5.798;2022-08-18T03:17:06;21.40;69.30
35127;DHT22;21300;52.006;5.798;2022-08-18T03:19:33;21.50;69.30
35127;DHT22;21300;52.006;5.798;2022-08-18T03:21:59;21.40;69.30
35127;DHT22;21300;52.006;5.798;2022-08-18T03:24:25;21.50;69.20
35127;DHT22;21300;52.006;5.798;2022-08-18T03:26:53;21.40;69.20
35127;DHT22;21300;52.006;5.798;2022-08-18T03:29:21;21.50;69.40
35127;DHT22;21300;52.006;5.798;2022-08-18T03:31:48;21.40;69.30
35127;DHT22;21300;52.006;5.798;2022-08-18T03:34:15;21.40;69.30
35127;DHT22;21300;52.006;5.798;2022-08-18T03:36:43;21.40;69.30
35127;DHT22;21300;52.006;5.798;2022-08-18T03:39:11;21.40;69.30
35127;DHT22;21300;52.006;5.798;2022-08-18T03:41:40;21.40;69.30
35127;DHT22;21300;52.006;5.798;2022-08-18T03:44:08;21.40;69.40
35127;DHT22;21300;52.006;5.798;2022-08-18T03:46:34;21.40;69.30
35127;DHT22;21300;52.006;5.798;2022-08-18T03:49:00;21.40;69.30
35127;DHT22;21300;52.006;5.798;2022-08-18T03:51:29;21.40;69.30
35127;DHT22;21300;52.006;5.798;2022-08-18T03:54:00;21.30;69.30
35127;DHT22;21300;52.006;5.798;2022-08-18T03:56:29;21.30;69.30
35127;DHT22;21300;52.006;5.798;2022-08-18T03:59:00;21.40;69.40
35127;DHT22;21300;52.006;5.798;2022-08-18T04:01:30;21.30;69.30
35127;DHT22;21300;52.006;5.798;2022-08-18T04:03:59;21.30;69.40
35127;DHT22;21300;52.006;5.798;2022-08-18T04:06:39;21.30;69.40
35127;DHT22;21300;52.006;5.798;2022-08-18T04:09:07;21.30;69.40
35127;DHT22;21300;52.006;5.798;2022-08-18T04:11:35;21.30;69.40
35127;DHT22;21300;52.006;5.798;2022-08-18T04:14:02;21.30;69.50
35127;DHT22;21300;52.006;5.798;2022-08-18T04:16:31;21.30;69.40
35127;DHT22;21300;52.006;5.798;2022-08-18T04:18:57;21.30;69.40
35127;DHT22;21300;52.006;5.798;2022-08-18T04:21:35;21.30;70.30
35127;DHT22;21300;52.006;5.798;2022-08-18T04:24:02;21.30;69.40
35127;DHT22;21300;52.006;5.798;2022-08-18T04:26:56;21.30;69.50
35127;DHT22;21300;52.006;5.798;2022-08-18T04:29:23;21.30;69.50
35127;DHT22;21300;52.006;5.798;2022-08-18T04:31:50;21.20;69.50
35127;DHT22;21300;52.006;5.798;2022-08-18T04:34:18;21.20;69.50
35127;DHT22;21300;52.006;5.798;2022-08-18T04:36:45;21.20;69.50
35127;DHT22;21300;52.006;5.798;2022-08-18T04:39:11;21.20;69.50
35127;DHT22;21300;52.006;5.798;2022-08-18T04:41:40;21.20;69.60
35127;DHT22;21300;52.006;5.798;2022-08-18T04:44:09;21.20;69.60
35127;DHT22;21300;52.006;5.798;2022-08-18T04:46:48;21.20;69.60
35127;DHT22;21300;52.006;5.798;2022-08-18T04:49:19;21.20;69.50
35127;DHT22;21300;52.006;5.798;2022-08-18T04:51:47;21.20;69.60
35127;DHT22;21300;52.006;5.798;2022-08-18T04:54:34;21.20;69.50
35127;DHT22;21300;52.006;5.798;2022-08-18T04:57:10;21.20;69.60
35127;DHT22;21300;52.006;5.798;2022-08-18T04:59:37;21.20;69.60
35127;DHT22;21300;52.006;5.798;2022-08-18T05:02:05;21.20;69.60
35127;DHT22;21300;52.006;5.798;2022-08-18T05:04:37;21.20;69.70
35127;DHT22;21300;52.006;5.798;2022-08-18T05:07:10;21.20;70.00
35127;DHT22;21300;52.006;5.798;2022-08-18T05:09:37;21.20;69.70
35127;DHT22;21300;52.006;5.798;2022-08-18T05:12:05;21.20;69.60
35127;DHT22;21300;52.006;5.798;2022-08-18T05:14:32;21.20;69.70
35127;DHT22;21300;52.006;5.798;2022-08-18T05:16:58;21.10;69.70
35127;DHT22;21300;52.006;5.798;2022-08-18T05:19:24;21.10;69.60
35127;DHT22;21300;52.006;5.798;2022-08-18T05:21:51;21.10;69.60
35127;DHT22;21300;52.006;5.798;2022-08-18T05:24:18;21.10;69.70
35127;DHT22;21300;52.006;5.798;2022-08-18T05:26:45;21.20;69.70
35127;DHT22;21300;52.006;5.798;2022-08-18T05:29:11;21.20;69.80
35127;DHT22;21300;52.006;5.798;2022-08-18T05:31:36;21.10;70.50
35127;DHT22;21300;52.006;5.798;2022-08-18T05:34:02;21.20;70.50
35127;DHT22;21300;52.006;5.798;2022-08-18T05:39:23;21.10;69.80
35127;DHT22;21300;52.006;5.798;2022-08-18T05:42:02;21.10;69.80
35127;DHT22;21300;52.006;5.798;2022-08-18T05:44:35;21.10;69.80
35127;DHT22;21300;52.006;5.798;2022-08-18T05:47:13;21.10;69.80
35127;DHT22;21300;52.006;5.798;2022-08-18T05:49:42;21.10;69.90
35127;DHT22;21300;52.006;5.798;2022-08-18T05:52:33;21.10;70.00
35127;DHT22;21300;52.006;5.798;2022-08-18T05:55:10;21.10;69.90
35127;DHT22;21300;52.006;5.798;2022-08-18T05:58:08;21.10;69.90
35127;DHT22;21300;52.006;5.798;2022-08-18T06:00:36;21.10;69.90
35127;DHT22;21300;52.006;5.798;2022-08-18T06:03:16;21.10;69.80
35127;DHT22;21300;52.006;5.798;2022-08-18T06:05:55;21.10;69.90
35127;DHT22;21300;52.006;5.798;2022-08-18T06:08:33;21.10;69.90
35127;DHT22;21300;52.006;5.798;2022-08-18T06:11:01;21.10;69.90
35127;DHT22;21300;52.006;5.798;2022-08-18T06:13:26;21.10;69.80
35127;DHT22;21300;52.006;5.798;2022-08-18T06:40:34;21.10;70.00
35127;DHT22;21300;52.006;5.798;2022-08-18T06:43:01;21.10;69.80
35127;DHT22;21300;52.006;5.798;2022-08-18T06:45:35;21.10;69.90
35127;DHT22;21300;52.006;5.798;2022-08-18T06:48:16;21.10;69.80
35127;DHT22;21300;52.006;5.798;2022-08-18T06:50:48;21.10;69.80
35127;DHT22;21300;52.006;5.798;2022-08-18T06:53:14;21.10;69.90
35127;DHT22;21300;52.006;5.798;2022-08-18T06:55:43;21.10;69.80
35127;DHT22;21300;52.006;5.798;2022-08-18T07:00:41;21.20;69.90
35127;DHT22;21300;52.006;5.798;2022-08-18T07:08:40;21.10;70.10
35127;DHT22;21300;52.006;5.798;2022-08-18T07:13:53;21.10;69.90
35127;DHT22;21300;52.006;5.798;2022-08-18T07:18:48;21.10;70.20
35127;DHT22;21300;52.006;5.798;2022-08-18T07:21:30;21.20;70.00
35127;DHT22;21300;52.006;5.798;2022-08-18T07:24:03;21.20;70.10
35127;DHT22;21300;52.006;5.798;2022-08-18T07:26:29;21.20;69.90
35127;DHT22;21300;52.006;5.798;2022-08-18T07:29:12;21.20;70.00
35127;DHT22;21300;52.006;5.798;2022-08-18T07:31:48;21.20;69.90
35127;DHT22;21300;52.006;5.798;2022-08-18T07:37:02;21.30;70.00
35127;DHT22;21300;52.006;5.798;2022-08-18T07:45:04;21.30;69.90
35127;DHT22;21300;52.006;5.798;2022-08-18T07:47:41;21.30;69.70
35127;DHT22;21300;52.006;5.798;2022-08-18T07:50:10;21.30;69.80
35127;DHT22;21300;52.006;5.798;2022-08-18T07:52:55;21.30;69.70
35127;DHT22;21300;52.006;5.798;2022-08-18T07:55:30;21.40;69.80
35127;DHT22;21300;52.006;5.798;2022-08-18T07:58:40;21.40;69.80
35127;DHT22;21300;52.006;5.798;2022-08-18T08:03:57;21.40;69.80
35127;DHT22;21300;52.006;5.798;2022-08-18T08:06:52;21.40;69.80
35127;DHT22;21300;52.006;5.798;2022-08-18T08:14:47;21.50;69.80
35127;DHT22;21300;52.006;5.798;2022-08-18T08:17:23;21.50;69.90
35127;DHT22;21300;52.006;5.798;2022-08-18T08:30:14;21.70;69.90
35127;DHT22;21300;52.006;5.798;2022-08-18T08:36:01;21.70;69.60
35127;DHT22;21300;52.006;5.798;2022-08-18T08:38:42;21.70;69.50
35127;DHT22;21300;52.006;5.798;2022-08-18T08:41:32;21.70;69.60
35127;DHT22;21300;52.006;5.798;2022-08-18T08:44:13;21.70;69.40
35127;DHT22;21300;52.006;5.798;2022-08-18T08:46:58;21.80;69.50
35127;DHT22;21300;52.006;5.798;2022-08-18T08:49:46;21.80;69.40
35127;DHT22;21300;52.006;5.798;2022-08-18T08:52:15;21.80;69.40
35127;DHT22;21300;52.006;5.798;2022-08-18T08:54:58;21.90;69.30
35127;DHT22;21300;52.006;5.798;2022-08-18T08:57:30;21.90;69.40
35127;DHT22;21300;52.006;5.798;2022-08-18T09:00:00;22.00;69.50
35127;DHT22;21300;52.006;5.798;2022-08-18T09:02:39;22.00;69.30
35127;DHT22;21300;52.006;5.798;2022-08-18T09:05:11;22.00;69.40
35127;DHT22;21300;52.006;5.798;2022-08-18T09:08:00;22.00;69.40
35127;DHT22;21300;52.006;5.798;2022-08-18T09:16:26;22.10;69.60
35127;DHT22;21300;52.006;5.798;2022-08-18T09:24:31;22.20;69.50
35127;DHT22;21300;52.006;5.798;2022-08-18T09:30:03;22.30;69.40
35127;DHT22;21300;52.006;5.798;2022-08-18T09:32:51;22.30;69.40
35127;DHT22;21300;52.006;5.798;2022-08-18T09:38:07;22.40;69.50
35127;DHT22;21300;52.006;5.798;2022-08-18T09:41:03;22.40;69.50
35127;DHT22;21300;52.006;5.798;2022-08-18T09:51:54;22.60;69.50
35127;DHT22;21300;52.006;5.798;2022-08-18T09:54:28;22.70;69.50
35127;DHT22;21300;52.006;5.798;2022-08-18T09:59:53;22.70;69.30
35127;DHT22;21300;52.006;5.798;2022-08-18T10:10:48;22.90;69.20
35127;DHT22;21300;52.006;5.798;2022-08-18T10:24:20;23.00;69.20
35127;DHT22;21300;52.006;5.798;2022-08-18T10:34:41;23.10;69.00
35127;DHT22;21300;52.006;5.798;2022-08-18T10:39:59;23.20;68.90
35127;DHT22;21300;52.006;5.798;2022-08-18T10:45:21;23.30;68.90
35127;DHT22;21300;52.006;5.798;2022-08-18T10:48:20;23.30;68.90
35127;DHT22;21300;52.006;5.798;2022-08-18T10:53:25;23.30;68.80
35127;DHT22;21300;52.006;5.798;2022-08-18T10:56:01;23.40;68.90
35127;DHT22;21300;52.006;5.798;2022-08-18T11:04:30;23.50;68.80
35127;DHT22;21300;52.006;5.798;2022-08-18T11:07:10;23.50;68.70
35127;DHT22;21300;52.006;5.798;2022-08-18T11:09:38;23.50;68.60
35127;DHT22;21300;52.006;5.798;2022-08-18T11:12:05;23.60;68.60
35127;DHT22;21300;52.006;5.798;2022-08-18T11:14:48;23.60;68.60
35127;DHT22;21300;52.006;5.798;2022-08-18T11:17:29;23.60;68.50
35127;DHT22;21300;52.006;5.798;2022-08-18T11:19:59;23.70;68.30
35127;DHT22;21300;52.006;5.798;2022-08-18T11:22:32;23.70;68.40
35127;DHT22;21300;52.006;5.798;2022-08-18T11:24:59;23.70;68.40
35127;DHT22;21300;52.006;5.798;2022-08-18T11:27:27;23.80;68.50
35127;DHT22;21300;52.006;5.798;2022-08-18T11:29:57;23.80;68.50
35127;DHT22;21300;52.006;5.798;2022-08-18T11:32:30;23.80;68.50
35127;DHT22;21300;52.006;5.798;2022-08-18T11:39:54;23.90;68.10
35127;DHT22;21300;52.006;5.798;2022-08-18T11:42:28;23.90;68.30
35127;DHT22;21300;52.006;5.798;2022-08-18T11:45:05;23.90;68.30
35127;DHT22;21300;52.006;5.798;2022-08-18T11:47:32;24.00;68.30
35127;DHT22;21300;52.006;5.798;2022-08-18T11:50:09;24.00;68.20
35127;DHT22;21300;52.006;5.798;2022-08-18T11:52:50;24.00;68.20
35127;DHT22;21300;52.006;5.798;2022-08-18T11:55:21;24.00;68.20
35127;DHT22;21300;52.006;5.798;2022-08-18T11:57:54;24.00;68.20
35127;DHT22;21300;52.006;5.798;2022-08-18T12:03:22;24.10;68.20
35127;DHT22;21300;52.006;5.798;2022-08-18T12:06:10;24.10;68.10
35127;DHT22;21300;52.006;5.798;2022-08-18T12:08:47;24.10;68.10
35127;DHT22;21300;52.006;5.798;2022-08-18T12:11:21;24.10;68.10
35127;DHT22;21300;52.006;5.798;2022-08-18T12:13:57;24.20;68.10
35127;DHT22;21300;52.006;5.798;2022-08-18T12:16:38;24.20;68.10
35127;DHT22;21300;52.006;5.798;2022-08-18T12:19:06;24.20;68.00
35127;DHT22;21300;52.006;5.798;2022-08-18T12:21:37;24.20;68.80
35127;DHT22;21300;52.006;5.798;2022-08-18T12:24:03;24.20;68.10
35127;DHT22;21300;52.006;5.798;2022-08-18T12:26:29;24.20;68.10
35127;DHT22;21300;52.006;5.798;2022-08-18T12:28:55;24.20;68.10
35127;DHT22;21300;52.006;5.798;2022-08-18T12:31:20;24.20;68.00
35127;DHT22;21300;52.006;5.798;2022-08-18T12:33:46;24.30;68.00
35127;DHT22;21300;52.006;5.798;2022-08-18T12:36:12;24.30;68.10
35127;DHT22;21300;52.006;5.798;2022-08-18T12:38:38;24.30;68.00
35127;DHT22;21300;52.006;5.798;2022-08-18T12:41:05;24.30;68.10
35127;DHT22;21300;52.006;5.798;2022-08-18T12:43:36;24.30;68.00
35127;DHT22;21300;52.006;5.798;2022-08-18T12:46:03;24.30;68.00
35127;DHT22;21300;52.006;5.798;2022-08-18T12:48:29;24.30;68.00
35127;DHT22;21300;52.006;5.798;2022-08-18T12:50:56;24.30;68.00
35127;DHT22;21300;52.006;5.798;2022-08-18T12:53:23;24.30;68.00
35127;DHT22;21300;52.006;5.798;2022-08-18T12:55:50;24.30;68.00
35127;DHT22;21300;52.006;5.798;2022-08-18T12:58:15;24.40;68.10
35127;DHT22;21300;52.006;5.798;2022-08-18T13:00:41;24.40;68.10
35127;DHT22;21300;52.006;5.798;2022-08-18T13:03:07;24.40;68.10
35127;DHT22;21300;52.006;5.798;2022-08-18T13:05:33;24.40;68.10
35127;DHT22;21300;52.006;5.798;2022-08-18T13:08:01;24.40;68.00
35127;DHT22;21300;52.006;5.798;2022-08-18T13:10:27;24.40;68.00
35127;DHT22;21300;52.006;5.798;2022-08-18T13:12:53;24.40;68.00
35127;DHT22;21300;52.006;5.798;2022-08-18T13:15:19;24.40;68.00
35127;DHT22;21300;52.006;5.798;2022-08-18T13:17:44;24.40;67.90
35127;DHT22;21300;52.006;5.798;2022-08-18T13:20:13;24.40;68.00
35127;DHT22;21300;52.006;5.798;2022-08-18T13:22:40;24.40;67.90
35127;DHT22;21300;52.006;5.798;2022-08-18T13:25:10;24.40;67.90
35127;DHT22;21300;52.006;5.798;2022-08-18T13:27:37;24.40;67.80
35127;DHT22;21300;52.006;5.798;2022-08-18T13:30:09;24.40;67.80
35127;DHT22;21300;52.006;5.798;2022-08-18T13:32:35;24.40;67.80
35127;DHT22;21300;52.006;5.798;2022-08-18T13:35:01;24.40;67.80
35127;DHT22;21300;52.006;5.798;2022-08-18T13:37:27;24.40;67.80
35127;DHT22;21300;52.006;5.798;2022-08-18T13:39:57;24.40;67.80
35127;DHT22;21300;52.006;5.798;2022-08-18T13:42:23;24.40;67.80
35127;DHT22;21300;52.006;5.798;2022-08-18T13:44:49;24.50;67.80
35127;DHT22;21300;52.006;5.798;2022-08-18T13:47:14;24.40;67.60
35127;DHT22;21300;52.006;5.798;2022-08-18T13:49:40;24.50;67.60
35127;DHT22;21300;52.006;5.798;2022-08-18T13:52:06;24.50;67.60
35127;DHT22;21300;52.006;5.798;2022-08-18T13:54:32;24.50;67.60
35127;DHT22;21300;52.006;5.798;2022-08-18T13:56:59;24.50;67.70
35127;DHT22;21300;52.006;5.798;2022-08-18T13:59:25;24.50;67.60
35127;DHT22;21300;52.006;5.798;2022-08-18T14:01:56;24.50;67.60
35127;DHT22;21300;52.006;5.798;2022-08-18T14:04:23;24.50;67.60
35127;DHT22;21300;52.006;5.798;2022-08-18T14:06:53;24.50;67.60
35127;DHT22;21300;52.006;5.798;2022-08-18T14:09:19;24.60;67.80
35127;DHT22;21300;52.006;5.798;2022-08-18T14:11:45;24.60;67.80
35127;DHT22;21300;52.006;5.798;2022-08-18T14:14:12;24.60;67.80
35127;DHT22;21300;52.006;5.798;2022-08-18T14:16:38;24.60;67.70
35127;DHT22;21300;52.006;5.798;2022-08-18T14:19:04;24.60;67.70
35127;DHT22;21300;52.006;5.798;2022-08-18T14:21:50;24.60;67.70
35127;DHT22;21300;52.006;5.798;2022-08-18T14:24:35;24.60;67.70
35127;DHT22;21300;52.006;5.798;2022-08-18T14:27:23;24.60;67.60
35127;DHT22;21300;52.006;5.798;2022-08-18T14:29:49;24.70;67.70
35127;DHT22;21300;52.006;5.798;2022-08-18T14:32:19;24.70;67.60
35127;DHT22;21300;52.006;5.798;2022-08-18T14:34:46;24.70;67.60
35127;DHT22;21300;52.006;5.798;2022-08-18T14:37:12;24.70;67.50
35127;DHT22;21300;52.006;5.798;2022-08-18T14:39:38;24.80;67.60
35127;DHT22;21300;52.006;5.798;2022-08-18T14:42:03;24.80;67.50
35127;DHT22;21300;52.006;5.798;2022-08-18T14:44:29;24.80;67.50
35127;DHT22;21300;52.006;5.798;2022-08-18T14:46:55;24.80;67.50
35127;DHT22;21300;52.006;5.798;2022-08-18T14:49:25;24.80;67.50
35127;DHT22;21300;52.006;5.798;2022-08-18T14:51:51;24.80;67.40
35127;DHT22;21300;52.006;5.798;2022-08-18T14:54:16;24.80;67.40
35127;DHT22;21300;52.006;5.798;2022-08-18T14:56:42;24.90;67.40
35127;DHT22;21300;52.006;5.798;2022-08-18T14:59:08;24.80;67.40
35127;DHT22;21300;52.006;5.798;2022-08-18T15:01:36;24.90;67.40
35127;DHT22;21300;52.006;5.798;2022-08-18T15:04:03;24.90;68.20
35127;DHT22;21300;52.006;5.798;2022-08-18T15:06:29;24.90;67.30
35127;DHT22;21300;52.006;5.798;2022-08-18T15:08:55;25.00;67.30
35127;DHT22;21300;52.006;5.798;2022-08-18T15:11:21;24.90;67.30
35127;DHT22;21300;52.006;5.798;2022-08-18T15:13:47;25.00;67.40
35127;DHT22;21300;52.006;5.798;2022-08-18T15:16:14;25.00;67.50
35127;DHT22;21300;52.006;5.798;2022-08-18T15:18:41;25.00;67.40
35127;DHT22;21300;52.006;5.798;2022-08-18T15:21:07;25.00;67.30
35127;DHT22;21300;52.006;5.798;2022-08-18T15:23:52;25.00;67.30
35127;DHT22;21300;52.006;5.798;2022-08-18T15:26:36;25.10;67.30
35127;DHT22;21300;52.006;5.798;2022-08-18T15:29:03;25.10;67.20
35127;DHT22;21300;52.006;5.798;2022-08-18T15:31:36;25.10;67.20
35127;DHT22;21300;52.006;5.798;2022-08-18T15:34:02;25.10;67.10
35127;DHT22;21300;52.006;5.798;2022-08-18T15:36:29;25.10;67.00
35127;DHT22;21300;52.006;5.798;2022-08-18T15:38:57;25.10;67.00
35127;DHT22;21300;52.006;5.798;2022-08-18T15:41:38;25.10;67.00
35127;DHT22;21300;52.006;5.798;2022-08-18T15:44:06;25.10;66.90
35127;DHT22;21300;52.006;5.798;2022-08-18T15:46:34;25.10;66.90
35127;DHT22;21300;52.006;5.798;2022-08-18T15:49:00;25.10;66.90
35127;DHT22;21300;52.006;5.798;2022-08-18T15:51:29;25.10;66.80
35127;DHT22;21300;52.006;5.798;2022-08-18T15:53:55;25.10;66.70
35127;DHT22;21300;52.006;5.798;2022-08-18T15:56:23;25.10;66.60
35127;DHT22;21300;52.006;5.798;2022-08-18T15:58:50;25.20;66.60
35127;DHT22;21300;52.006;5.798;2022-08-18T16:01:17;25.10;66.50
35127;DHT22;21300;52.006;5.798;2022-08-18T16:03:43;25.20;66.50
35127;DHT22;21300;52.006;5.798;2022-08-18T16:06:14;25.20;66.50
35127;DHT22;21300;52.006;5.798;2022-08-18T16:08:40;25.10;66.40
35127;DHT22;21300;52.006;5.798;2022-08-18T16:11:09;25.20;66.40
35127;DHT22;21300;52.006;5.798;2022-08-18T16:13:35;25.20;66.40
35127;DHT22;21300;52.006;5.798;2022-08-18T16:16:08;25.20;66.40
35127;DHT22;21300;52.006;5.798;2022-08-18T16:18:34;25.10;66.30
35127;DHT22;21300;52.006;5.798;2022-08-18T16:21:08;25.20;66.30
35127;DHT22;21300;52.006;5.798;2022-08-18T16:23:41;25.20;66.30
35127;DHT22;21300;52.006;5.798;2022-08-18T16:26:09;25.20;66.20
35127;DHT22;21300;52.006;5.798;2022-08-18T16:28:40;25.20;66.10
35127;DHT22;21300;52.006;5.798;2022-08-18T16:31:06;25.20;66.10
35127;DHT22;21300;52.006;5.798;2022-08-18T16:33:32;25.20;66.00
35127;DHT22;21300;52.006;5.798;2022-08-18T16:36:06;25.20;66.00
35127;DHT22;21300;52.006;5.798;2022-08-18T16:38:33;25.20;66.00
35127;DHT22;21300;52.006;5.798;2022-08-18T16:41:06;25.20;65.90
35127;DHT22;21300;52.006;5.798;2022-08-18T16:43:34;25.20;65.90
35127;DHT22;21300;52.006;5.798;2022-08-18T16:45:59;25.20;65.80
35127;DHT22;21300;52.006;5.798;2022-08-18T16:48:27;25.20;65.70
35127;DHT22;21300;52.006;5.798;2022-08-18T16:50:53;25.20;65.80
35127;DHT22;21300;52.006;5.798;2022-08-18T16:53:19;25.20;65.80
35127;DHT22;21300;52.006;5.798;2022-08-18T16:55:44;25.20;65.80
35127;DHT22;21300;52.006;5.798;2022-08-18T16:58:10;25.20;65.80
35127;DHT22;21300;52.006;5.798;2022-08-18T17:00:55;25.20;65.80
35127;DHT22;21300;52.006;5.798;2022-08-18T17:03:40;25.20;65.70
35127;DHT22;21300;52.006;5.798;2022-08-18T17:06:25;25.20;65.60
35127;DHT22;21300;52.006;5.798;2022-08-18T17:08:53;25.20;65.60
35127;DHT22;21300;52.006;5.798;2022-08-18T17:11:19;25.20;65.60
35127;DHT22;21300;52.006;5.798;2022-08-18T17:13:47;25.20;65.70
35127;DHT22;21300;52.006;5.798;2022-08-18T17:16:14;25.20;65.60
35127;DHT22;21300;52.006;5.798;2022-08-18T17:18:41;25.20;65.60
35127;DHT22;21300;52.006;5.798;2022-08-18T17:21:10;25.20;65.60
35127;DHT22;21300;52.006;5.798;2022-08-18T17:23:37;25.20;65.50
35127;DHT22;21300;52.006;5.798;2022-08-18T17:26:03;25.20;65.50
35127;DHT22;21300;52.006;5.798;2022-08-18T17:28:42;25.20;65.50
35127;DHT22;21300;52.006;5.798;2022-08-18T17:31:10;25.20;65.50
35127;DHT22;21300;52.006;5.798;2022-08-18T17:33:56;25.20;65.50
35127;DHT22;21300;52.006;5.798;2022-08-18T17:36:47;25.20;65.50
35127;DHT22;21300;52.006;5.798;2022-08-18T17:39:14;25.20;65.50
35127;DHT22;21300;52.006;5.798;2022-08-18T17:41:42;25.20;65.50
35127;DHT22;21300;52.006;5.798;2022-08-18T17:44:26;25.20;65.40
35127;DHT22;21300;52.006;5.798;2022-08-18T17:46:53;25.20;65.50
35127;DHT22;21300;52.006;5.798;2022-08-18T17:49:43;25.20;65.50
35127;DHT22;21300;52.006;5.798;2022-08-18T17:52:40;25.20;65.60
35127;DHT22;21300;52.006;5.798;2022-08-18T17:55:21;25.20;65.60
35127;DHT22;21300;52.006;5.798;2022-08-18T17:58:08;25.20;65.60
35127;DHT22;21300;52.006;5.798;2022-08-18T18:00:35;25.20;65.60
35127;DHT22;21300;52.006;5.798;2022-08-18T18:03:01;25.20;65.50
35127;DHT22;21300;52.006;5.798;2022-08-18T18:05:44;25.20;65.50
35127;DHT22;21300;52.006;5.798;2022-08-18T18:08:11;25.20;65.50
35127;DHT22;21300;52.006;5.798;2022-08-18T18:13:27;25.10;65.50
35127;DHT22;21300;52.006;5.798;2022-08-18T18:15:56;25.10;65.50
35127;DHT22;21300;52.006;5.798;2022-08-18T18:21:03;25.10;65.60
35127;DHT22;21300;52.006;5.798;2022-08-18T18:23:42;25.10;65.60
35127;DHT22;21300;52.006;5.798;2022-08-18T18:26:32;25.10;65.60
35127;DHT22;21300;52.006;5.798;2022-08-18T18:29:22;25.10;65.60